sensor_id;sensor_type;location;lat;lon;timestamp;P1;durP1;ratioP1;P2;durP2;ratioP2
21239;SDS011;10778;48.962;9.018;2024-02-21T00:02:23;13.98;;;4.50;;
21239;SDS011;10778;48.962;9.018;2024-02-21T00:04:49;12.55;;;4.55;;
21239;SDS011;10778;48.962;9.018;2024-02-21T00:07:15;11.10;;;4.68;;
21239;SDS011;10778;48.962;9.018;2024-02-21T00:09:41;12.90;;;4.80;;
21239;SDS011;10778;48.962;9.018;2024-02-21T00:12:07;10.75;;;4.40;;
21239;SDS011;10778;48.962;9.018;2024-02-21T00:14:33;11.68;;;4.45;;
21239;SDS011;10778;48.962;9.018;2024-02-21T00:16:59;10.07;;;3.88;;
21239;SDS011;10778;48.962;9.018;2024-02-21T00:19:25;10.90;;;4.22;;
21239;SDS011;10778;48.962;9.018;2024-02-21T00:21:51;11.95;;;4.15;;
21239;SDS011;10778;48.962;9.018;2024-02-21T00:24:17;11.32;;;4.20;;
21239;SDS011;10778;48.962;9.018;2024-02-21T00:26:43;10.88;;;4.20;;
21239;SDS011;10778;48.962;9.018;2024-02-21T00:29:09;14.25;;;4.65;;
21239;SDS011;10778;48.962;9.018;2024-02-21T00:31:35;10.70;;;4.22;;
21239;SDS011;10778;48.962;9.018;2024-02-21T00:34:01;9.75;;;4.20;;
21239;SDS011;10778;48.962;9.018;2024-02-21T00:36:27;11.05;;;4.13;;
21239;SDS011;10778;48.962;9.018;2024-02-21T00:38:53;12.63;;;4.40;;
21239;SDS011;10778;48.962;9.018;2024-02-21T00:41:19;12.25;;;4.28;;
21239;SDS011;10778;48.962;9.018;2024-02-21T00:43:45;10.65;;;4.32;;
21239;SDS011;10778;48.962;9.018;2024-02-21T00:46:11;10.70;;;4.47;;
21239;SDS011;10778;48.962;9.018;2024-02-21T00:48:37;10.63;;;4.15;;
21239;SDS011;10778;48.962;9.018;2024-02-21T00:51:03;12.98;;;4.10;;
21239;SDS011;10778;48.962;9.018;2024-02-21T00:53:29;9.50;;;4.10;;
21239;SDS011;10778;48.962;9.018;2024-02-21T00:55:55;10.25;;;4.60;;
21239;SDS011;10778;48.962;9.018;2024-02-21T00:58:22;12.65;;;4.55;;
21239;SDS011;10778;48.962;9.018;2024-02-21T01:00:48;15.30;;;4.82;;
21239;SDS011;10778;48.962;9.018;2024-02-21T01:03:14;9.82;;;4.90;;
21239;SDS011;10778;48.962;9.018;2024-02-21T01:05:40;13.73;;;4.60;;
21239;SDS011;10778;48.962;9.018;2024-02-21T01:08:06;12.50;;;4.40;;
21239;SDS011;10778;48.962;9.018;2024-02-21T01:10:32;10.77;;;4.38;;
21239;SDS011;10778;48.962;9.018;2024-02-21T01:12:58;12.75;;;4.75;;
21239;SDS011;10778;48.962;9.018;2024-02-21T01:15:24;12.10;;;4.65;;
21239;SDS011;10778;48.962;9.018;2024-02-21T01:17:50;12.63;;;4.38;;
21239;SDS011;10778;48.962;9.018;2024-02-21T01:20:20;17.58;;;4.97;;
21239;SDS011;10778;48.962;9.018;2024-02-21T01:22:46;11.63;;;4.32;;
21239;SDS011;10778;48.962;9.018;2024-02-21T01:25:12;8.88;;;4.10;;
21239;SDS011;10778;48.962;9.018;2024-02-21T01:27:38;10.20;;;4.35;;
21239;SDS011;10778;48.962;9.018;2024-02-21T01:30:04;8.38;;;4.20;;
21239;SDS011;10778;48.962;9.018;2024-02-21T01:32:31;11.35;;;4.82;;
21239;SDS011;10778;48.962;9.018;2024-02-21T01:34:57;9.95;;;4.20;;
21239;SDS011;10778;48.962;9.018;2024-02-21T01:37:23;11.77;;;4.95;;
21239;SDS011;10778;48.962;9.018;2024-02-21T01:39:49;10.05;;;4.10;;
21239;SDS011;10778;48.962;9.018;2024-02-21T01:42:16;9.48;;;4.53;;
21239;SDS011;10778;48.962;9.018;2024-02-21T01:44:42;10.85;;;4.20;;
21239;SDS011;10778;48.962;9.018;2024-02-21T01:47:09;11.45;;;4.32;;
21239;SDS011;10778;48.962;9.018;2024-02-21T01:49:36;10.93;;;3.97;;
21239;SDS011;10778;48.962;9.018;2024-02-21T01:52:02;11.75;;;4.40;;
21239;SDS011;10778;48.962;9.018;2024-02-21T01:54:29;14.23;;;4.78;;
21239;SDS011;10778;48.962;9.018;2024-02-21T01:56:55;9.57;;;4.07;;
21239;SDS011;10778;48.962;9.018;2024-02-21T01:59:21;10.73;;;4.13;;
21239;SDS011;10778;48.962;9.018;2024-02-21T02:01:47;10.73;;;4.43;;
21239;SDS011;10778;48.962;9.018;2024-02-21T02:04:14;10.68;;;3.90;;
21239;SDS011;10778;48.962;9.018;2024-02-21T02:06:40;10.82;;;3.80;;
21239;SDS011;10778;48.962;9.018;2024-02-21T02:09:06;12.10;;;3.60;;
21239;SDS011;10778;48.962;9.018;2024-02-21T02:11:33;13.60;;;3.97;;
21239;SDS011;10778;48.962;9.018;2024-02-21T02:13:59;10.98;;;3.47;;
21239;SDS011;10778;48.962;9.018;2024-02-21T02:16:25;10.32;;;3.25;;
21239;SDS011;10778;48.962;9.018;2024-02-21T02:18:51;13.27;;;3.50;;
21239;SDS011;10778;48.962;9.018;2024-02-21T02:21:27;11.48;;;3.47;;
21239;SDS011;10778;48.962;9.018;2024-02-21T02:23:56;11.60;;;3.35;;
21239;SDS011;10778;48.962;9.018;2024-02-21T02:26:22;9.93;;;3.40;;
21239;SDS011;10778;48.962;9.018;2024-02-21T02:28:48;10.18;;;3.63;;
21239;SDS011;10778;48.962;9.018;2024-02-21T02:31:14;10.48;;;3.80;;
21239;SDS011;10778;48.962;9.018;2024-02-21T02:33:42;12.65;;;3.80;;
21239;SDS011;10778;48.962;9.018;2024-02-21T02:36:09;10.20;;;4.07;;
21239;SDS011;10778;48.962;9.018;2024-02-21T02:38:35;8.57;;;3.67;;
21239;SDS011;10778;48.962;9.018;2024-02-21T02:41:01;10.27;;;3.70;;
21239;SDS011;10778;48.962;9.018;2024-02-21T02:43:27;9.68;;;3.45;;
21239;SDS011;10778;48.962;9.018;2024-02-21T02:45:53;9.02;;;3.78;;
21239;SDS011;10778;48.962;9.018;2024-02-21T02:48:19;11.77;;;4.03;;
21239;SDS011;10778;48.962;9.018;2024-02-21T02:50:45;16.83;;;4.03;;
21239;SDS011;10778;48.962;9.018;2024-02-21T02:53:11;12.60;;;4.43;;
21239;SDS011;10778;48.962;9.018;2024-02-21T02:55:37;11.27;;;4.05;;
21239;SDS011;10778;48.962;9.018;2024-02-21T02:58:03;8.68;;;3.88;;
21239;SDS011;10778;48.962;9.018;2024-02-21T03:00:29;13.57;;;4.00;;
21239;SDS011;10778;48.962;9.018;2024-02-21T03:02:56;11.93;;;3.80;;
21239;SDS011;10778;48.962;9.018;2024-02-21T03:05:22;12.25;;;3.95;;
21239;SDS011;10778;48.962;9.018;2024-02-21T03:07:48;8.38;;;3.75;;
21239;SDS011;10778;48.962;9.018;2024-02-21T03:10:17;9.38;;;3.80;;
21239;SDS011;10778;48.962;9.018;2024-02-21T03:12:43;6.70;;;3.20;;
21239;SDS011;10778;48.962;9.018;2024-02-21T03:15:09;8.80;;;3.65;;
21239;SDS011;10778;48.962;9.018;2024-02-21T03:17:35;9.77;;;3.95;;
21239;SDS011;10778;48.962;9.018;2024-02-21T03:20:04;12.40;;;4.40;;
21239;SDS011;10778;48.962;9.018;2024-02-21T03:22:31;12.32;;;3.97;;
21239;SDS011;10778;48.962;9.018;2024-02-21T03:24:58;7.55;;;3.58;;
21239;SDS011;10778;48.962;9.018;2024-02-21T03:27:24;8.65;;;3.63;;
21239;SDS011;10778;48.962;9.018;2024-02-21T03:29:50;10.77;;;3.85;;
21239;SDS011;10778;48.962;9.018;2024-02-21T03:32:16;15.52;;;3.90;;
21239;SDS011;10778;48.962;9.018;2024-02-21T03:34:42;10.90;;;3.92;;
21239;SDS011;10778;48.962;9.018;2024-02-21T03:37:08;11.27;;;3.90;;
21239;SDS011;10778;48.962;9.018;2024-02-21T03:39:34;11.07;;;3.90;;
21239;SDS011;10778;48.962;9.018;2024-02-21T03:42:00;10.43;;;3.97;;
21239;SDS011;10778;48.962;9.018;2024-02-21T03:44:30;11.25;;;3.97;;
21239;SDS011;10778;48.962;9.018;2024-02-21T03:46:57;10.98;;;4.00;;
21239;SDS011;10778;48.962;9.018;2024-02-21T03:49:24;11.82;;;3.83;;
21239;SDS011;10778;48.962;9.018;2024-02-21T03:51:50;10.77;;;3.55;;
21239;SDS011;10778;48.962;9.018;2024-02-21T03:54:16;8.68;;;3.90;;
21239;SDS011;10778;48.962;9.018;2024-02-21T03:56:42;10.85;;;4.07;;
21239;SDS011;10778;48.962;9.018;2024-02-21T03:59:08;8.70;;;3.75;;
21239;SDS011;10778;48.962;9.018;2024-02-21T04:01:34;9.02;;;3.67;;
21239;SDS011;10778;48.962;9.018;2024-02-21T04:04:00;12.73;;;4.10;;
21239;SDS011;10778;48.962;9.018;2024-02-21T04:06:27;7.63;;;3.85;;
21239;SDS011;10778;48.962;9.018;2024-02-21T04:08:53;9.10;;;3.50;;
21239;SDS011;10778;48.962;9.018;2024-02-21T04:11:19;10.70;;;3.88;;
21239;SDS011;10778;48.962;9.018;2024-02-21T04:13:45;8.95;;;4.03;;
21239;SDS011;10778;48.962;9.018;2024-02-21T04:16:14;11.90;;;4.18;;
21239;SDS011;10778;48.962;9.018;2024-02-21T04:18:41;10.18;;;4.00;;
21239;SDS011;10778;48.962;9.018;2024-02-21T04:21:08;7.57;;;3.88;;
21239;SDS011;10778;48.962;9.018;2024-02-21T04:23:39;10.60;;;3.90;;
21239;SDS011;10778;48.962;9.018;2024-02-21T04:26:05;11.35;;;4.05;;
21239;SDS011;10778;48.962;9.018;2024-02-21T04:28:31;8.30;;;3.97;;
21239;SDS011;10778;48.962;9.018;2024-02-21T04:30:57;10.07;;;4.03;;
21239;SDS011;10778;48.962;9.018;2024-02-21T04:33:23;9.90;;;4.60;;
21239;SDS011;10778;48.962;9.018;2024-02-21T04:35:49;10.18;;;4.45;;
21239;SDS011;10778;48.962;9.018;2024-02-21T04:38:15;11.45;;;4.30;;
21239;SDS011;10778;48.962;9.018;2024-02-21T04:40:41;10.95;;;4.00;;
21239;SDS011;10778;48.962;9.018;2024-02-21T04:43:07;10.18;;;3.92;;
21239;SDS011;10778;48.962;9.018;2024-02-21T04:45:33;8.80;;;4.30;;
21239;SDS011;10778;48.962;9.018;2024-02-21T04:47:59;7.75;;;4.10;;
21239;SDS011;10778;48.962;9.018;2024-02-21T04:50:25;8.38;;;4.32;;
21239;SDS011;10778;48.962;9.018;2024-02-21T04:52:51;10.68;;;4.05;;
21239;SDS011;10778;48.962;9.018;2024-02-21T04:55:17;10.75;;;4.28;;
21239;SDS011;10778;48.962;9.018;2024-02-21T04:57:43;9.80;;;4.00;;
21239;SDS011;10778;48.962;9.018;2024-02-21T05:00:09;10.07;;;4.22;;
21239;SDS011;10778;48.962;9.018;2024-02-21T05:02:36;12.60;;;4.85;;
21239;SDS011;10778;48.962;9.018;2024-02-21T05:05:02;11.00;;;4.40;;
21239;SDS011;10778;48.962;9.018;2024-02-21T05:07:28;10.63;;;4.00;;
21239;SDS011;10778;48.962;9.018;2024-02-21T05:09:54;10.75;;;4.20;;
21239;SDS011;10778;48.962;9.018;2024-02-21T05:12:20;9.18;;;3.58;;
21239;SDS011;10778;48.962;9.018;2024-02-21T05:14:47;7.05;;;4.00;;
21239;SDS011;10778;48.962;9.018;2024-02-21T05:17:13;10.82;;;3.60;;
21239;SDS011;10778;48.962;9.018;2024-02-21T05:19:38;8.10;;;3.95;;
21239;SDS011;10778;48.962;9.018;2024-02-21T05:22:04;13.18;;;4.10;;
21239;SDS011;10778;48.962;9.018;2024-02-21T05:24:30;10.38;;;4.22;;
21239;SDS011;10778;48.962;9.018;2024-02-21T05:26:56;9.63;;;4.35;;
21239;SDS011;10778;48.962;9.018;2024-02-21T05:29:22;9.90;;;4.25;;
21239;SDS011;10778;48.962;9.018;2024-02-21T05:34:17;8.25;;;3.90;;
21239;SDS011;10778;48.962;9.018;2024-02-21T05:36:44;9.43;;;4.05;;
21239;SDS011;10778;48.962;9.018;2024-02-21T05:39:10;10.57;;;4.72;;
21239;SDS011;10778;48.962;9.018;2024-02-21T05:41:36;9.52;;;4.38;;
21239;SDS011;10778;48.962;9.018;2024-02-21T05:44:02;7.90;;;3.33;;
21239;SDS011;10778;48.962;9.018;2024-02-21T05:46:28;9.88;;;3.85;;
21239;SDS011;10778;48.962;9.018;2024-02-21T05:48:54;10.20;;;3.70;;
21239;SDS011;10778;48.962;9.018;2024-02-21T05:51:20;15.10;;;7.53;;
21239;SDS011;10778;48.962;9.018;2024-02-21T05:53:46;10.50;;;6.10;;
21239;SDS011;10778;48.962;9.018;2024-02-21T05:56:15;10.38;;;5.18;;
21239;SDS011;10778;48.962;9.018;2024-02-21T05:58:42;10.15;;;4.30;;
21239;SDS011;10778;48.962;9.018;2024-02-21T06:01:08;9.23;;;3.90;;
21239;SDS011;10778;48.962;9.018;2024-02-21T06:03:35;8.88;;;3.72;;
21239;SDS011;10778;48.962;9.018;2024-02-21T06:06:02;7.55;;;3.60;;
21239;SDS011;10778;48.962;9.018;2024-02-21T06:08:28;8.00;;;3.35;;
21239;SDS011;10778;48.962;9.018;2024-02-21T06:10:54;9.93;;;3.90;;
21239;SDS011;10778;48.962;9.018;2024-02-21T06:13:24;8.43;;;3.58;;
21239;SDS011;10778;48.962;9.018;2024-02-21T06:15:50;9.32;;;3.63;;
21239;SDS011;10778;48.962;9.018;2024-02-21T06:18:17;7.05;;;3.53;;
21239;SDS011;10778;48.962;9.018;2024-02-21T06:20:43;8.55;;;3.40;;
21239;SDS011;10778;48.962;9.018;2024-02-21T06:23:09;7.32;;;3.33;;
21239;SDS011;10778;48.962;9.018;2024-02-21T06:25:35;8.20;;;3.42;;
21239;SDS011;10778;48.962;9.018;2024-02-21T06:28:01;9.57;;;3.30;;
21239;SDS011;10778;48.962;9.018;2024-02-21T06:30:27;7.13;;;3.25;;
21239;SDS011;10778;48.962;9.018;2024-02-21T06:32:53;8.65;;;3.70;;
21239;SDS011;10778;48.962;9.018;2024-02-21T06:35:21;10.85;;;5.97;;
21239;SDS011;10778;48.962;9.018;2024-02-21T06:37:53;21.02;;;10.27;;
21239;SDS011;10778;48.962;9.018;2024-02-21T06:40:21;15.45;;;9.05;;
21239;SDS011;10778;48.962;9.018;2024-02-21T06:42:47;15.00;;;8.05;;
21239;SDS011;10778;48.962;9.018;2024-02-21T06:45:14;13.52;;;7.47;;
21239;SDS011;10778;48.962;9.018;2024-02-21T06:47:40;13.75;;;7.53;;
21239;SDS011;10778;48.962;9.018;2024-02-21T06:50:06;11.73;;;6.75;;
21239;SDS011;10778;48.962;9.018;2024-02-21T06:52:34;15.20;;;5.90;;
21239;SDS011;10778;48.962;9.018;2024-02-21T06:55:01;9.55;;;4.30;;
21239;SDS011;10778;48.962;9.018;2024-02-21T06:57:28;6.97;;;3.78;;
21239;SDS011;10778;48.962;9.018;2024-02-21T06:59:55;7.60;;;3.97;;
21239;SDS011;10778;48.962;9.018;2024-02-21T07:02:21;9.07;;;4.20;;
21239;SDS011;10778;48.962;9.018;2024-02-21T07:04:47;9.43;;;3.92;;
21239;SDS011;10778;48.962;9.018;2024-02-21T07:07:13;7.15;;;3.35;;
21239;SDS011;10778;48.962;9.018;2024-02-21T07:09:39;9.40;;;3.70;;
21239;SDS011;10778;48.962;9.018;2024-02-21T07:12:05;6.35;;;3.10;;
21239;SDS011;10778;48.962;9.018;2024-02-21T07:14:32;8.18;;;3.60;;
21239;SDS011;10778;48.962;9.018;2024-02-21T07:16:58;9.32;;;3.17;;
21239;SDS011;10778;48.962;9.018;2024-02-21T07:19:24;4.88;;;2.60;;
21239;SDS011;10778;48.962;9.018;2024-02-21T07:21:50;7.25;;;2.80;;
21239;SDS011;10778;48.962;9.018;2024-02-21T07:24:16;5.20;;;2.70;;
21239;SDS011;10778;48.962;9.018;2024-02-21T07:26:43;6.38;;;2.67;;
21239;SDS011;10778;48.962;9.018;2024-02-21T07:29:09;3.88;;;2.60;;
21239;SDS011;10778;48.962;9.018;2024-02-21T07:31:42;6.53;;;3.00;;
21239;SDS011;10778;48.962;9.018;2024-02-21T07:34:09;5.63;;;2.80;;
21239;SDS011;10778;48.962;9.018;2024-02-21T07:36:35;5.40;;;2.67;;
21239;SDS011;10778;48.962;9.018;2024-02-21T07:39:03;4.95;;;2.80;;
21239;SDS011;10778;48.962;9.018;2024-02-21T07:41:30;7.18;;;3.20;;
21239;SDS011;10778;48.962;9.018;2024-02-21T07:43:56;5.55;;;3.03;;
21239;SDS011;10778;48.962;9.018;2024-02-21T07:46:22;5.70;;;2.97;;
21239;SDS011;10778;48.962;9.018;2024-02-21T07:48:48;6.95;;;3.03;;
21239;SDS011;10778;48.962;9.018;2024-02-21T07:51:15;7.43;;;3.00;;
21239;SDS011;10778;48.962;9.018;2024-02-21T07:53:45;6.43;;;3.13;;
21239;SDS011;10778;48.962;9.018;2024-02-21T07:56:12;7.97;;;3.00;;
21239;SDS011;10778;48.962;9.018;2024-02-21T07:58:37;6.30;;;3.15;;
21239;SDS011;10778;48.962;9.018;2024-02-21T08:01:04;6.78;;;2.90;;
21239;SDS011;10778;48.962;9.018;2024-02-21T08:03:30;9.10;;;2.78;;
21239;SDS011;10778;48.962;9.018;2024-02-21T08:05:56;8.43;;;2.90;;
21239;SDS011;10778;48.962;9.018;2024-02-21T08:08:22;6.75;;;2.90;;
21239;SDS011;10778;48.962;9.018;2024-02-21T08:10:51;11.07;;;3.22;;
21239;SDS011;10778;48.962;9.018;2024-02-21T08:13:17;9.80;;;3.50;;
21239;SDS011;10778;48.962;9.018;2024-02-21T08:15:42;7.18;;;3.30;;
21239;SDS011;10778;48.962;9.018;2024-02-21T08:18:08;7.22;;;3.38;;
21239;SDS011;10778;48.962;9.018;2024-02-21T08:20:34;9.27;;;3.50;;
21239;SDS011;10778;48.962;9.018;2024-02-21T08:23:01;7.70;;;3.40;;
21239;SDS011;10778;48.962;9.018;2024-02-21T08:25:27;7.38;;;2.92;;
21239;SDS011;10778;48.962;9.018;2024-02-21T08:27:57;7.75;;;3.17;;
21239;SDS011;10778;48.962;9.018;2024-02-21T08:30:25;10.05;;;3.53;;
21239;SDS011;10778;48.962;9.018;2024-02-21T08:32:51;10.77;;;3.55;;
21239;SDS011;10778;48.962;9.018;2024-02-21T08:35:17;9.95;;;4.25;;
21239;SDS011;10778;48.962;9.018;2024-02-21T08:37:49;8.80;;;3.92;;
21239;SDS011;10778;48.962;9.018;2024-02-21T08:40:15;9.38;;;4.57;;
21239;SDS011;10778;48.962;9.018;2024-02-21T08:42:47;7.93;;;3.92;;
21239;SDS011;10778;48.962;9.018;2024-02-21T08:45:13;8.35;;;3.70;;
21239;SDS011;10778;48.962;9.018;2024-02-21T08:47:39;12.32;;;4.38;;
21239;SDS011;10778;48.962;9.018;2024-02-21T08:50:06;6.95;;;3.45;;
21239;SDS011;10778;48.962;9.018;2024-02-21T08:52:35;8.15;;;3.67;;
21239;SDS011;10778;48.962;9.018;2024-02-21T08:55:01;8.20;;;3.50;;
21239;SDS011;10778;48.962;9.018;2024-02-21T08:57:27;11.95;;;3.42;;
21239;SDS011;10778;48.962;9.018;2024-02-21T08:59:53;8.80;;;3.30;;
21239;SDS011;10778;48.962;9.018;2024-02-21T09:02:19;5.95;;;2.95;;
21239;SDS011;10778;48.962;9.018;2024-02-21T09:04:45;8.05;;;3.45;;
21239;SDS011;10778;48.962;9.018;2024-02-21T09:07:11;8.05;;;3.40;;
21239;SDS011;10778;48.962;9.018;2024-02-21T09:09:37;8.38;;;3.35;;
21239;SDS011;10778;48.962;9.018;2024-02-21T09:12:06;6.57;;;3.03;;
21239;SDS011;10778;48.962;9.018;2024-02-21T09:14:33;8.90;;;3.10;;
21239;SDS011;10778;48.962;9.018;2024-02-21T09:16:59;8.00;;;2.83;;
21239;SDS011;10778;48.962;9.018;2024-02-21T09:19:25;7.43;;;2.90;;
21239;SDS011;10778;48.962;9.018;2024-02-21T09:21:51;8.75;;;2.90;;
21239;SDS011;10778;48.962;9.018;2024-02-21T09:24:17;9.02;;;3.00;;
21239;SDS011;10778;48.962;9.018;2024-02-21T09:26:43;6.30;;;2.80;;
21239;SDS011;10778;48.962;9.018;2024-02-21T09:29:09;12.05;;;3.17;;
21239;SDS011;10778;48.962;9.018;2024-02-21T09:31:35;10.27;;;3.03;;
21239;SDS011;10778;48.962;9.018;2024-02-21T09:34:01;9.55;;;2.80;;
21239;SDS011;10778;48.962;9.018;2024-02-21T09:36:27;9.85;;;3.10;;
21239;SDS011;10778;48.962;9.018;2024-02-21T09:38:54;8.02;;;3.05;;
21239;SDS011;10778;48.962;9.018;2024-02-21T09:41:29;7.80;;;2.70;;
21239;SDS011;10778;48.962;9.018;2024-02-21T09:43:55;8.75;;;2.88;;
21239;SDS011;10778;48.962;9.018;2024-02-21T09:46:24;6.55;;;2.80;;
21239;SDS011;10778;48.962;9.018;2024-02-21T09:52:04;12.70;;;3.30;;
21239;SDS011;10778;48.962;9.018;2024-02-21T09:54:35;9.68;;;3.20;;
21239;SDS011;10778;48.962;9.018;2024-02-21T09:57:01;7.97;;;3.00;;
21239;SDS011;10778;48.962;9.018;2024-02-21T09:59:28;9.70;;;3.20;;
21239;SDS011;10778;48.962;9.018;2024-02-21T10:01:56;9.18;;;3.05;;
21239;SDS011;10778;48.962;9.018;2024-02-21T10:04:23;7.78;;;3.38;;
21239;SDS011;10778;48.962;9.018;2024-02-21T10:06:49;10.27;;;3.40;;
21239;SDS011;10778;48.962;9.018;2024-02-21T10:09:21;8.77;;;2.88;;
21239;SDS011;10778;48.962;9.018;2024-02-21T10:11:49;10.98;;;2.92;;
21239;SDS011;10778;48.962;9.018;2024-02-21T10:14:16;10.15;;;3.22;;
21239;SDS011;10778;48.962;9.018;2024-02-21T10:16:44;10.80;;;2.90;;
21239;SDS011;10778;48.962;9.018;2024-02-21T10:19:20;9.10;;;2.90;;
21239;SDS011;10778;48.962;9.018;2024-02-21T10:22:03;8.23;;;2.78;;
21239;SDS011;10778;48.962;9.018;2024-02-21T10:24:30;9.60;;;2.90;;
21239;SDS011;10778;48.962;9.018;2024-02-21T10:27:04;7.80;;;2.70;;
21239;SDS011;10778;48.962;9.018;2024-02-21T10:29:34;8.60;;;2.65;;
21239;SDS011;10778;48.962;9.018;2024-02-21T10:32:10;8.52;;;2.60;;
21239;SDS011;10778;48.962;9.018;2024-02-21T10:34:38;9.85;;;2.58;;
21239;SDS011;10778;48.962;9.018;2024-02-21T10:37:06;10.00;;;2.65;;
21239;SDS011;10778;48.962;9.018;2024-02-21T10:39:33;9.50;;;2.72;;
21239;SDS011;10778;48.962;9.018;2024-02-21T10:42:01;7.82;;;2.63;;
21239;SDS011;10778;48.962;9.018;2024-02-21T10:44:30;8.40;;;2.78;;
21239;SDS011;10778;48.962;9.018;2024-02-21T10:47:03;7.63;;;2.85;;
21239;SDS011;10778;48.962;9.018;2024-02-21T10:49:38;7.60;;;2.70;;
21239;SDS011;10778;48.962;9.018;2024-02-21T10:55:05;7.55;;;2.63;;
21239;SDS011;10778;48.962;9.018;2024-02-21T10:57:42;11.25;;;2.83;;
21239;SDS011;10778;48.962;9.018;2024-02-21T11:00:09;8.75;;;2.45;;
21239;SDS011;10778;48.962;9.018;2024-02-21T11:02:38;6.53;;;2.35;;
21239;SDS011;10778;48.962;9.018;2024-02-21T11:05:05;8.77;;;2.15;;
21239;SDS011;10778;48.962;9.018;2024-02-21T11:07:32;8.15;;;2.28;;
21239;SDS011;10778;48.962;9.018;2024-02-21T11:10:02;6.82;;;1.85;;
21239;SDS011;10778;48.962;9.018;2024-02-21T11:12:32;8.60;;;2.10;;
21239;SDS011;10778;48.962;9.018;2024-02-21T11:15:07;6.95;;;1.77;;
21239;SDS011;10778;48.962;9.018;2024-02-21T11:17:34;6.88;;;2.00;;
21239;SDS011;10778;48.962;9.018;2024-02-21T11:20:10;4.70;;;1.85;;
21239;SDS011;10778;48.962;9.018;2024-02-21T11:22:41;6.00;;;1.75;;
21239;SDS011;10778;48.962;9.018;2024-02-21T11:25:08;5.25;;;1.85;;
21239;SDS011;10778;48.962;9.018;2024-02-21T11:27:37;7.07;;;1.90;;
21239;SDS011;10778;48.962;9.018;2024-02-21T11:30:04;7.65;;;1.73;;
21239;SDS011;10778;48.962;9.018;2024-02-21T11:32:32;9.85;;;2.20;;
21239;SDS011;10778;48.962;9.018;2024-02-21T11:34:58;6.88;;;1.88;;
21239;SDS011;10778;48.962;9.018;2024-02-21T11:37:31;7.88;;;1.95;;
21239;SDS011;10778;48.962;9.018;2024-02-21T11:39:59;7.55;;;1.90;;
21239;SDS011;10778;48.962;9.018;2024-02-21T11:42:26;6.43;;;1.70;;
21239;SDS011;10778;48.962;9.018;2024-02-21T11:44:53;8.95;;;2.30;;
21239;SDS011;10778;48.962;9.018;2024-02-21T11:47:22;7.80;;;1.88;;
21239;SDS011;10778;48.962;9.018;2024-02-21T11:49:49;8.15;;;2.13;;
21239;SDS011;10778;48.962;9.018;2024-02-21T11:52:23;6.93;;;2.45;;
21239;SDS011;10778;48.962;9.018;2024-02-21T11:54:54;10.77;;;3.63;;
21239;SDS011;10778;48.962;9.018;2024-02-21T11:57:22;7.70;;;3.10;;
21239;SDS011;10778;48.962;9.018;2024-02-21T11:59:48;8.40;;;2.55;;
21239;SDS011;10778;48.962;9.018;2024-02-21T12:02:15;7.72;;;2.00;;
21239;SDS011;10778;48.962;9.018;2024-02-21T12:04:43;4.72;;;1.80;;
21239;SDS011;10778;48.962;9.018;2024-02-21T12:07:09;7.18;;;1.80;;
21239;SDS011;10778;48.962;9.018;2024-02-21T12:09:35;8.50;;;2.05;;
21239;SDS011;10778;48.962;9.018;2024-02-21T12:12:02;7.95;;;1.88;;
21239;SDS011;10778;48.962;9.018;2024-02-21T12:14:30;11.43;;;2.45;;
21239;SDS011;10778;48.962;9.018;2024-02-21T12:16:58;8.52;;;2.05;;
21239;SDS011;10778;48.962;9.018;2024-02-21T12:19:25;7.97;;;2.15;;
21239;SDS011;10778;48.962;9.018;2024-02-21T12:21:51;6.25;;;2.20;;
21239;SDS011;10778;48.962;9.018;2024-02-21T12:24:24;7.50;;;2.20;;
21239;SDS011;10778;48.962;9.018;2024-02-21T12:26:51;7.32;;;2.20;;
21239;SDS011;10778;48.962;9.018;2024-02-21T12:29:18;7.43;;;1.92;;
21239;SDS011;10778;48.962;9.018;2024-02-21T12:31:45;5.75;;;1.92;;
21239;SDS011;10778;48.962;9.018;2024-02-21T12:34:10;7.10;;;1.90;;
21239;SDS011;10778;48.962;9.018;2024-02-21T12:36:45;6.93;;;1.80;;
21239;SDS011;10778;48.962;9.018;2024-02-21T12:39:14;6.22;;;2.17;;
21239;SDS011;10778;48.962;9.018;2024-02-21T12:41:40;5.63;;;1.70;;
21239;SDS011;10778;48.962;9.018;2024-02-21T12:44:09;9.02;;;2.05;;
21239;SDS011;10778;48.962;9.018;2024-02-21T12:46:37;6.50;;;1.85;;
21239;SDS011;10778;48.962;9.018;2024-02-21T12:49:03;7.15;;;2.00;;
21239;SDS011;10778;48.962;9.018;2024-02-21T12:51:30;7.45;;;2.05;;
21239;SDS011;10778;48.962;9.018;2024-02-21T12:53:57;7.10;;;2.10;;
21239;SDS011;10778;48.962;9.018;2024-02-21T12:56:23;7.50;;;2.17;;
21239;SDS011;10778;48.962;9.018;2024-02-21T12:58:50;8.63;;;2.10;;
21239;SDS011;10778;48.962;9.018;2024-02-21T13:01:16;7.13;;;1.83;;
21239;SDS011;10778;48.962;9.018;2024-02-21T13:03:42;5.80;;;1.67;;
21239;SDS011;10778;48.962;9.018;2024-02-21T13:06:08;5.47;;;1.88;;
21239;SDS011;10778;48.962;9.018;2024-02-21T13:08:37;9.00;;;2.20;;
21239;SDS011;10778;48.962;9.018;2024-02-21T13:11:04;8.95;;;2.25;;
21239;SDS011;10778;48.962;9.018;2024-02-21T13:13:30;5.75;;;1.95;;
21239;SDS011;10778;48.962;9.018;2024-02-21T13:15:57;6.53;;;1.83;;
21239;SDS011;10778;48.962;9.018;2024-02-21T13:18:23;5.70;;;1.80;;
21239;SDS011;10778;48.962;9.018;2024-02-21T13:20:50;8.20;;;2.00;;
21239;SDS011;10778;48.962;9.018;2024-02-21T13:23:16;7.68;;;2.28;;
21239;SDS011;10778;48.962;9.018;2024-02-21T13:25:42;7.60;;;2.05;;
21239;SDS011;10778;48.962;9.018;2024-02-21T13:28:09;7.55;;;1.95;;
21239;SDS011;10778;48.962;9.018;2024-02-21T13:30:35;7.82;;;1.98;;
21239;SDS011;10778;48.962;9.018;2024-02-21T13:33:01;7.15;;;1.90;;
21239;SDS011;10778;48.962;9.018;2024-02-21T13:35:29;7.95;;;2.88;;
21239;SDS011;10778;48.962;9.018;2024-02-21T13:37:55;7.47;;;2.25;;
21239;SDS011;10778;48.962;9.018;2024-02-21T13:40:21;8.18;;;2.22;;
21239;SDS011;10778;48.962;9.018;2024-02-21T13:42:46;6.25;;;1.70;;
21239;SDS011;10778;48.962;9.018;2024-02-21T13:45:14;6.15;;;2.03;;
21239;SDS011;10778;48.962;9.018;2024-02-21T13:47:40;4.70;;;1.88;;
21239;SDS011;10778;48.962;9.018;2024-02-21T13:50:06;8.85;;;1.92;;
21239;SDS011;10778;48.962;9.018;2024-02-21T13:52:36;6.70;;;2.17;;
21239;SDS011;10778;48.962;9.018;2024-02-21T13:55:03;7.35;;;1.90;;
21239;SDS011;10778;48.962;9.018;2024-02-21T13:57:29;6.35;;;2.10;;
21239;SDS011;10778;48.962;9.018;2024-02-21T13:59:55;9.50;;;2.15;;
21239;SDS011;10778;48.962;9.018;2024-02-21T14:02:21;9.82;;;1.92;;
21239;SDS011;10778;48.962;9.018;2024-02-21T14:04:47;9.15;;;2.33;;
21239;SDS011;10778;48.962;9.018;2024-02-21T14:07:13;5.32;;;2.15;;
21239;SDS011;10778;48.962;9.018;2024-02-21T14:09:39;7.18;;;2.10;;
21239;SDS011;10778;48.962;9.018;2024-02-21T14:12:05;7.05;;;1.90;;
21239;SDS011;10778;48.962;9.018;2024-02-21T14:14:34;7.82;;;1.90;;
21239;SDS011;10778;48.962;9.018;2024-02-21T14:17:01;7.13;;;1.92;;
21239;SDS011;10778;48.962;9.018;2024-02-21T14:19:29;5.32;;;1.90;;
21239;SDS011;10778;48.962;9.018;2024-02-21T14:21:55;6.82;;;1.95;;
21239;SDS011;10778;48.962;9.018;2024-02-21T14:24:22;8.30;;;2.00;;
21239;SDS011;10778;48.962;9.018;2024-02-21T14:26:49;6.88;;;2.10;;
21239;SDS011;10778;48.962;9.018;2024-02-21T14:29:15;8.20;;;2.13;;
21239;SDS011;10778;48.962;9.018;2024-02-21T14:31:41;10.32;;;2.13;;
21239;SDS011;10778;48.962;9.018;2024-02-21T14:34:08;6.18;;;2.05;;
21239;SDS011;10778;48.962;9.018;2024-02-21T14:36:34;7.22;;;1.92;;
21239;SDS011;10778;48.962;9.018;2024-02-21T14:39:00;9.52;;;2.35;;
21239;SDS011;10778;48.962;9.018;2024-02-21T14:41:26;7.03;;;2.00;;
21239;SDS011;10778;48.962;9.018;2024-02-21T14:43:53;5.82;;;2.10;;
21239;SDS011;10778;48.962;9.018;2024-02-21T14:46:19;9.20;;;2.20;;
21239;SDS011;10778;48.962;9.018;2024-02-21T14:48:45;5.20;;;1.92;;
21239;SDS011;10778;48.962;9.018;2024-02-21T14:51:11;7.03;;;1.95;;